Time;durP1;ratioP1;P1;durP2;ratioP2;P2;SDS_P1;SDS_P2;PMS_P1;PMS_P2;Temp;Humidity;BMP_temperature;BMP_pressure;BME280_temperature;BME280_humidity;BME280_pressure;Samples;Min_cycle;Max_cycle;Signal;HPM_P1;HPM_P2
2022/01/11 00:02:42;;;;;;;15.45;5.90;;;;;;;-0.86;100.00;100557.66;5076014;28;20474;-66
2022/01/11 00:05:33;;;;;;;17.40;6.40;;;;;;;-0.96;100.00;100533.84;5077152;28;20218;-66
2022/01/11 00:08:18;;;;;;;17.25;5.95;;;;;;;-0.76;100.00;100554.56;5096214;28;20062;-64
2022/01/11 00:11:05;;;;;;;15.27;6.43;;;;;;;-0.79;100.00;100548.38;5051766;28;20050;-65
2022/01/11 00:13:52;;;;;;;13.45;6.13;;;;;;;-1.04;100.00;100561.28;5061771;28;20420;-62
2022/01/11 00:16:37;;;;;;;14.73;6.20;;;;;;;-0.95;100.00;100559.91;5052743;28;20527;-65
2022/01/11 00:19:22;;;;;;;;;;;;;;;-0.68;100.00;100563.56;5057500;28;20066;-64
2022/01/11 00:22:16;;;;;;;15.15;5.70;;;;;;;-0.74;100.00;100557.25;5071329;28;20336;-63
2022/01/11 00:25:01;;;;;;;18.00;6.70;;;;;;;-0.64;100.00;100561.94;5064431;28;20054;-63
2022/01/11 00:27:47;;;;;;;14.52;5.72;;;;;;;-0.58;100.00;100573.50;5072168;28;20142;-65
2022/01/11 00:30:37;;;;;;;17.63;5.63;;;;;;;-0.56;100.00;100578.72;5080950;28;20533;-66
2022/01/11 00:33:33;;;;;;;15.43;6.32;;;;;;;-0.49;100.00;100573.81;5084884;28;20039;-63
2022/01/11 00:36:18;;;;;;;18.17;6.07;;;;;;;-0.61;100.00;100572.47;5102317;28;20227;-65
2022/01/11 00:39:03;;;;;;;18.08;5.93;;;;;;;-0.63;100.00;100582.84;5074642;28;20092;-64
2022/01/11 00:41:48;;;;;;;17.60;6.40;;;;;;;-0.73;100.00;100569.41;5083810;27;20882;-66
2022/01/11 00:44:32;;;;;;;16.10;6.55;;;;;;;-0.67;100.00;100570.53;5100507;28;20221;-63
2022/01/11 00:47:17;;;;;;;14.57;5.63;;;;;;;-0.75;100.00;100584.13;5096155;28;20149;-67
2022/01/11 00:50:07;;;;;;;18.25;6.80;;;;;;;-0.85;100.00;100582.88;5084392;28;20493;-64
2022/01/11 00:52:52;;;;;;;16.92;6.03;;;;;;;-0.84;100.00;100582.03;5054842;28;20085;-63
2022/01/11 00:55:38;;;;;;;21.35;6.78;;;;;;;-0.82;100.00;100592.53;5099630;27;20078;-65
2022/01/11 00:58:24;;;;;;;16.27;6.78;;;;;;;-0.88;100.00;100589.66;5085722;28;20151;-63
2022/01/11 01:01:09;;;;;;;18.42;6.53;;;;;;;-0.82;100.00;100603.78;5095335;28;20115;-63
2022/01/11 01:03:54;;;;;;;15.93;6.28;;;;;;;-0.77;100.00;100589.25;5097923;28;20070;-62
2022/01/11 01:06:39;;;;;;;18.13;6.53;;;;;;;-0.68;100.00;100588.69;5077794;27;20105;-62
2022/01/11 01:09:38;;;;;;;20.25;6.57;;;;;;;-0.55;100.00;100609.19;5081642;28;20437;-65
2022/01/11 01:12:23;;;;;;;20.02;6.38;;;;;;;-0.52;100.00;100610.16;5103349;27;20054;-67
2022/01/11 01:15:08;;;;;;;17.73;6.93;;;;;;;-0.55;100.00;100596.16;5078566;28;20507;-64
2022/01/11 01:17:55;;;;;;;15.07;5.78;;;;;;;-0.64;100.00;100616.63;5065962;28;20169;-64
2022/01/11 01:20:41;;;;;;;17.25;6.07;;;;;;;-0.70;100.00;100619.00;5077316;28;20058;-65
2022/01/11 01:23:26;;;;;;;17.60;5.75;;;;;;;-1.02;100.00;100609.94;5099475;28;20088;-62
2022/01/11 01:26:11;;;;;;;16.27;6.35;;;;;;;-0.94;100.00;100618.94;5075174;28;20399;-64
2022/01/11 01:28:57;;;;;;;16.77;5.72;;;;;;;-1.00;100.00;100620.44;5083621;28;20165;-65
2022/01/11 01:31:42;;;;;;;14.48;5.82;;;;;;;-1.26;100.00;100623.72;5079114;28;20117;-65
2022/01/11 01:34:27;;;;;;;15.30;5.68;;;;;;;-1.16;100.00;100618.94;5068025;28;20518;-64
2022/01/11 01:37:12;;;;;;;15.93;5.57;;;;;;;-1.07;100.00;100637.53;5069733;28;20122;-65
2022/01/11 01:39:58;;;;;;;14.32;6.57;;;;;;;-1.31;100.00;100636.53;5084480;27;20054;-63
2022/01/11 01:42:44;;;;;;;14.95;6.10;;;;;;;-1.26;100.00;100642.81;5047422;28;20064;-64
2022/01/11 01:45:29;;;;;;;12.90;5.90;;;;;;;-1.26;100.00;100632.41;5039310;28;20059;-64
2022/01/11 01:48:15;;;;;;;;;;;;;;;-1.06;100.00;100648.81;5030133;28;20051;-64
2022/01/11 01:51:07;;;;;;;14.73;5.68;;;;;;;-1.15;100.00;100648.47;5052919;28;19969;-63
2022/01/11 01:53:52;;;;;;;13.75;5.60;;;;;;;-1.28;100.00;100659.19;5056647;28;20094;-63
2022/01/11 01:56:37;;;;;;;;;;;;;;;-1.28;100.00;100654.88;5057416;28;20119;-64
2022/01/11 01:59:22;;;;;;;14.48;5.35;;;;;;;-1.29;100.00;100654.81;5046261;28;19978;-63
2022/01/11 02:02:09;;;;;;;18.40;6.65;;;;;;;-1.38;100.00;100650.13;5055791;28;20615;-63
2022/01/11 02:04:54;;;;;;;9.68;5.22;;;;;;;-1.43;100.00;100653.34;5053372;28;20129;-63
2022/01/11 02:07:40;;;;;;;;;;;;;;;-1.45;100.00;100665.41;5059733;28;20059;-65
2022/01/11 02:10:24;;;;;;;12.30;5.63;;;;;;;-1.62;100.00;100666.44;5055614;28;19924;-64
2022/01/11 02:13:09;;;;;;;;;;;;;;;-1.49;100.00;100671.31;5041861;28;20527;-66
2022/01/11 02:15:57;;;;;;;11.05;5.63;;;;;;;-1.58;100.00;100668.34;5032000;28;19938;-65
2022/01/11 02:18:45;;;;;;;11.35;5.47;;;;;;;-1.49;100.00;100669.63;5057763;28;20043;-65
2022/01/11 02:21:35;;;;;;;13.30;5.25;;;;;;;-1.50;100.00;100672.16;5048798;28;20103;-63
2022/01/11 02:24:20;;;;;;;11.27;5.13;;;;;;;-1.48;100.00;100673.06;5054979;28;20055;-64
2022/01/11 02:27:05;;;;;;;11.23;4.60;;;;;;;-1.57;100.00;100680.50;5042602;28;20056;-65
2022/01/11 02:29:50;;;;;;;13.45;4.93;;;;;;;-1.61;100.00;100676.91;5056142;28;20137;-65
2022/01/11 02:32:49;;;;;;;11.90;5.53;;;;;;;-1.57;100.00;100672.69;5043327;28;20168;-64
2022/01/11 02:35:35;;;;;;;12.13;4.50;;;;;;;-1.60;100.00;100677.75;5059507;28;20202;-64
2022/01/11 02:38:20;;;;;;;13.00;5.38;;;;;;;-1.57;100.00;100671.00;5039668;28;20163;-68
2022/01/11 02:41:05;;;;;;;10.52;5.30;;;;;;;-1.54;100.00;100667.63;5068179;28;20129;-69
2022/01/11 02:43:50;;;;;;;8.95;4.88;;;;;;;-1.45;100.00;100675.81;5080570;28;20177;-65
2022/01/11 02:46:35;;;;;;;11.50;5.07;;;;;;;-1.38;100.00;100685.66;5069823;28;20125;-66
2022/01/11 02:49:22;;;;;;;9.35;4.50;;;;;;;-1.44;100.00;100683.69;5071097;28;20058;-66
2022/01/11 02:52:12;;;;;;;11.60;5.45;;;;;;;-1.54;100.00;100688.44;5057309;27;20202;-66
2022/01/11 02:55:03;;;;;;;10.75;5.32;;;;;;;-1.69;100.00;100680.88;5077788;28;20388;-65
2022/01/11 02:57:48;;;;;;;10.30;4.90;;;;;;;-1.67;100.00;100693.91;5069244;28;20134;-64
2022/01/11 03:00:45;;;;;;;10.00;5.10;;;;;;;-1.59;100.00;100697.72;5056300;28;20059;-65
2022/01/11 03:03:30;;;;;;;8.73;4.70;;;;;;;-1.69;100.00;100698.19;5083579;27;20055;-63
2022/01/11 03:06:14;;;;;;;9.15;4.78;;;;;;;-1.70;100.00;100697.28;5090980;28;20062;-65
2022/01/11 03:08:59;;;;;;;9.68;4.85;;;;;;;-1.67;100.00;100702.63;5095135;28;20050;-64
2022/01/11 03:11:47;;;;;;;10.93;4.68;;;;;;;-1.57;100.00;100699.59;5091888;27;20522;-65
2022/01/11 03:14:32;;;;;;;8.20;4.40;;;;;;;-1.54;100.00;100702.31;5056248;28;20139;-65
2022/01/11 03:17:17;;;;;;;8.32;4.93;;;;;;;-1.87;100.00;100699.97;5056968;28;20054;-64
2022/01/11 03:20:03;;;;;;;8.75;4.40;;;;;;;-1.96;100.00;100703.06;5087529;28;20051;-74
2022/01/11 03:22:48;;;;;;;7.20;4.22;;;;;;;-2.19;100.00;100701.16;5043406;28;20101;-68
2022/01/11 03:25:34;;;;;;;7.25;3.92;;;;;;;-2.13;100.00;100710.94;5096465;27;20081;-69
2022/01/11 03:28:21;;;;;;;8.27;4.53;;;;;;;-2.14;100.00;100706.56;5083103;27;20410;-67
2022/01/11 03:31:06;;;;;;;7.00;4.55;;;;;;;-2.20;100.00;100714.97;5100182;27;20058;-68
2022/01/11 03:34:00;;;;;;;8.85;4.32;;;;;;;-2.15;100.00;100716.06;5106647;28;20109;-64
2022/01/11 03:36:46;;;;;;;8.75;4.72;;;;;;;-2.03;100.00;100731.28;5068465;28;20416;-63
2022/01/11 03:39:32;;;;;;;7.70;4.32;;;;;;;-1.85;100.00;100722.63;5065948;28;20076;-64
2022/01/11 03:42:18;;;;;;;9.45;4.32;;;;;;;-1.75;100.00;100730.00;5081559;27;20058;-64
2022/01/11 03:45:05;;;;;;;8.75;4.60;;;;;;;-1.73;100.00;100727.47;5111426;27;20472;-63
2022/01/11 03:47:52;;;;;;;8.63;4.30;;;;;;;-1.83;100.00;100735.66;5099786;27;20049;-73
2022/01/11 03:50:39;;;;;;;8.93;4.60;;;;;;;-2.05;100.00;100727.75;5117930;27;20078;-66
2022/01/11 03:53:28;;;;;;;;;;;;;;;-2.04;100.00;100734.72;5090337;28;20127;-65
2022/01/11 03:56:22;;;;;;;7.60;3.72;;;;;;;-2.11;100.00;100736.16;5076131;28;19926;-66
2022/01/11 03:59:16;;;;;;;6.47;3.90;;;;;;;-2.14;100.00;100741.22;5095694;28;20510;-63
2022/01/11 04:02:02;;;;;;;9.32;4.32;;;;;;;-2.07;100.00;100745.88;5086802;28;20057;-67
2022/01/11 04:04:52;;;;;;;9.55;4.60;;;;;;;-1.93;100.00;100752.56;5060358;28;20054;-65
2022/01/11 04:07:38;;;;;;;6.40;3.97;;;;;;;-1.94;100.00;100750.78;5070514;28;20070;-64
2022/01/11 04:10:24;;;;;;;8.73;4.07;;;;;;;-2.17;100.00;100759.25;5069171;27;20120;-64
2022/01/11 04:13:09;;;;;;;6.90;3.63;;;;;;;-2.15;100.00;100754.13;5116350;27;20093;-64
2022/01/11 04:15:54;;;;;;;4.93;3.25;;;;;;;-2.19;100.00;100768.69;5075083;28;20051;-70
2022/01/11 04:18:40;;;;;;;9.40;3.95;;;;;;;-2.32;100.00;100758.56;5060932;28;20078;-71
2022/01/11 04:21:25;;;;;;;7.93;3.80;;;;;;;-2.30;100.00;100756.03;5057750;28;20043;-70
2022/01/11 04:24:13;;;;;;;8.00;4.18;;;;;;;-2.38;100.00;100765.19;5077173;28;20073;-70
2022/01/11 04:26:59;;;;;;;6.78;3.33;;;;;;;-2.46;100.00;100775.19;5100792;27;20073;-67
2022/01/11 04:29:44;;;;;;;6.15;3.35;;;;;;;-2.35;100.00;100784.38;5127622;27;20062;-65
2022/01/11 04:32:30;;;;;;;;;;;;;;;-2.57;100.00;100786.75;5104917;28;20081;-70
2022/01/11 04:35:16;;;;;;;5.47;3.30;;;;;;;-2.67;100.00;100788.84;5075196;28;19955;-64
2022/01/11 04:38:02;;;;;;;6.07;3.30;;;;;;;-2.55;100.00;100789.44;5076115;28;20593;-65
2022/01/11 04:40:49;;;;;;;6.57;3.63;;;;;;;-2.58;100.00;100786.69;5095243;27;20081;-72
2022/01/11 04:43:34;;;;;;;6.10;3.33;;;;;;;-2.76;100.00;100789.31;5081522;28;20051;-67
2022/01/11 04:46:19;;;;;;;7.00;3.92;;;;;;;-2.72;100.00;100809.41;5091904;28;20077;-65
2022/01/11 04:49:08;;;;;;;7.25;3.40;;;;;;;-2.72;100.00;100809.41;5090227;28;20155;-65
2022/01/11 04:51:54;;;;;;;6.82;3.70;;;;;;;-2.58;100.00;100815.25;5076980;28;20051;-63
2022/01/11 04:54:40;;;;;;;6.65;3.90;;;;;;;-2.56;100.00;100813.63;5075071;28;20095;-65
2022/01/11 04:57:26;;;;;;;7.65;3.67;;;;;;;-2.66;100.00;100808.78;5099982;27;20120;-64
2022/01/11 05:00:12;;;;;;;8.43;3.55;;;;;;;-2.82;100.00;100814.94;5080400;28;20062;-64
2022/01/11 05:02:59;;;;;;;6.78;3.67;;;;;;;-2.77;100.00;100812.59;5062726;28;20060;-65
2022/01/11 05:05:46;;;;;;;7.45;3.70;;;;;;;-2.86;100.00;100817.31;5072724;28;20050;-64
2022/01/11 05:08:32;;;;;;;7.63;4.00;;;;;;;-2.84;100.00;100819.19;5075648;28;20421;-64
2022/01/11 05:11:17;;;;;;;;;;;;;;;-2.97;100.00;100834.06;5086038;27;20054;-66
2022/01/11 05:14:02;;;;;;;6.05;3.15;;;;;;;-3.21;100.00;100838.91;5093593;27;19972;-72
2022/01/11 05:17:00;;;;;;;7.32;3.28;;;;;;;-3.27;100.00;100851.56;5082599;28;20119;-68
2022/01/11 05:19:45;;;;;;;7.38;3.47;;;;;;;-3.36;100.00;100853.66;5073902;28;20043;-68
2022/01/11 05:22:30;;;;;;;9.02;4.13;;;;;;;-3.33;100.00;100853.81;5066307;28;20112;-66
2022/01/11 05:25:15;;;;;;;6.60;3.72;;;;;;;-3.50;100.00;100844.28;5062709;28;20090;-68
2022/01/11 05:28:00;;;;;;;5.53;3.40;;;;;;;-3.45;100.00;100865.28;5099950;28;20092;-67
2022/01/11 05:30:45;;;;;;;6.75;3.40;;;;;;;-3.38;100.00;100864.75;5078671;28;20523;-68
2022/01/11 05:33:30;;;;;;;6.45;3.33;;;;;;;-3.41;100.00;100859.44;5069319;28;20042;-67
2022/01/11 05:36:16;;;;;;;5.75;3.05;;;;;;;-3.48;100.00;100865.13;5073002;28;20113;-67
2022/01/11 05:39:02;;;;;;;7.30;3.22;;;;;;;-3.69;100.00;100846.72;5080497;27;20182;-68
2022/01/11 05:41:47;;;;;;;5.93;3.30;;;;;;;-3.58;100.00;100868.91;5072181;28;20062;-67
2022/01/11 05:44:34;;;;;;;6.85;3.15;;;;;;;-3.45;100.00;100880.84;5087177;28;20051;-67
2022/01/11 05:47:19;;;;;;;6.45;3.42;;;;;;;-3.33;100.00;100878.88;5047162;28;20099;-65
2022/01/11 05:50:08;;;;;;;7.25;3.33;;;;;;;-3.20;100.00;100879.59;5081782;28;20055;-67
2022/01/11 05:52:53;;;;;;;5.78;3.10;;;;;;;-3.27;100.00;100882.69;5086019;28;20046;-68
2022/01/11 05:55:39;;;;;;;7.18;3.45;;;;;;;-3.61;100.00;100896.38;5075253;27;20732;-68
2022/01/11 05:58:24;;;;;;;5.65;3.03;;;;;;;-3.43;100.00;100887.88;5097287;28;20212;-68
2022/01/11 06:01:09;;;;;;;5.35;2.95;;;;;;;-3.54;100.00;100881.22;5049361;28;20051;-68
2022/01/11 06:03:54;;;;;;;;;;;;;;;-3.38;100.00;100899.38;5090715;28;20143;-67
2022/01/11 06:06:40;;;;;;;8.68;3.28;;;;;;;-3.53;100.00;100903.72;5091172;28;19938;-70
2022/01/11 06:09:26;;;;;;;6.82;3.13;;;;;;;-3.33;100.00;100912.59;5093061;28;20058;-67
2022/01/11 06:12:11;;;;;;;6.75;3.10;;;;;;;-3.22;100.00;100920.09;5075455;27;20542;-65
2022/01/11 06:14:57;;;;;;;6.25;3.10;;;;;;;-3.41;100.00;100921.66;5100451;27;20063;-65
2022/01/11 06:17:43;;;;;;;6.70;2.92;;;;;;;-3.56;100.00;100921.69;5060494;28;20542;-65
2022/01/11 06:20:29;;;;;;;6.18;2.90;;;;;;;-3.72;100.00;100928.59;5093391;28;20530;-65
2022/01/11 06:23:14;;;;;;;6.55;3.03;;;;;;;-3.80;100.00;100930.75;5054446;28;20166;-66
2022/01/11 06:25:59;;;;;;;;;;;;;;;-3.67;100.00;100938.41;5060935;27;20054;-66
2022/01/11 06:28:43;;;;;;;7.93;3.50;;;;;;;-3.47;100.00;100929.09;5088479;28;19941;-66
2022/01/11 06:31:30;;;;;;;5.90;3.00;;;;;;;-3.65;100.00;100941.94;5096387;28;20061;-65
2022/01/11 06:34:14;;;;;;;6.53;3.05;;;;;;;-3.62;100.00;100952.50;5079969;28;20085;-66
2022/01/11 06:37:00;;;;;;;5.43;3.13;;;;;;;-3.45;100.00;100956.88;5078818;28;20101;-66
2022/01/11 06:39:48;;;;;;;5.75;3.40;;;;;;;-3.36;100.00;100957.34;5070556;28;20147;-66
2022/01/11 06:42:34;;;;;;;7.80;2.83;;;;;;;-3.48;100.00;100964.47;5090828;27;20096;-65
2022/01/11 06:45:22;;;;;;;6.28;2.85;;;;;;;-3.78;100.00;100960.22;5096211;27;20092;-65
2022/01/11 06:48:09;;;;;;;4.72;2.45;;;;;;;-3.68;100.00;100972.00;5058464;28;20302;-67
2022/01/11 06:50:54;;;;;;;4.22;2.55;;;;;;;-3.77;100.00;100976.69;5092835;28;20411;-65
2022/01/11 06:53:42;;;;;;;6.75;2.75;;;;;;;-4.16;100.00;100975.31;5079496;28;20580;-65
2022/01/11 06:56:27;;;;;;;;;;;;;;;-4.14;100.00;100981.50;5078176;27;20116;-66
2022/01/11 06:59:20;;;;;;;5.63;2.97;;;;;;;-4.25;100.00;100992.00;5073484;28;19926;-65
2022/01/11 07:02:07;;;;;;;6.55;2.60;;;;;;;-4.15;100.00;100989.16;5091205;28;20043;-65
2022/01/11 07:05:01;;;;;;;5.27;2.60;;;;;;;-4.11;100.00;100989.44;5078473;28;20109;-66
2022/01/11 07:07:48;;;;;;;6.82;2.63;;;;;;;-4.08;100.00;100986.13;5079446;28;20046;-67
2022/01/11 07:10:34;;;;;;;7.28;2.50;;;;;;;-4.12;100.00;100997.13;5080315;28;20146;-67
2022/01/11 07:13:20;;;;;;;7.60;2.80;;;;;;;-4.30;100.00;100998.63;5092804;27;20352;-66
2022/01/11 07:16:05;;;;;;;7.45;3.00;;;;;;;-4.33;100.00;100993.25;5053181;28;20154;-69
2022/01/11 07:18:50;;;;;;;8.15;3.58;;;;;;;-4.24;100.00;101001.59;5070501;28;20100;-67
2022/01/11 07:21:35;;;;;;;7.72;2.75;;;;;;;-3.99;100.00;101003.06;5072723;28;20128;-69
2022/01/11 07:24:25;;;;;;;9.15;3.08;;;;;;;-3.92;100.00;101006.91;5066648;28;20092;-62
2022/01/11 07:27:11;;;;;;;7.78;2.47;;;;;;;-4.11;100.00;100994.63;5070969;27;20423;-69
2022/01/11 07:29:55;;;;;;;8.00;3.08;;;;;;;-4.25;100.00;101007.53;5079301;28;20510;-67
2022/01/11 07:32:40;;;;;;;;;;;;;;;-4.18;100.00;101014.88;5064404;28;20085;-65
2022/01/11 07:35:26;;;;;;;7.27;2.73;;;;;;;-4.12;100.00;101012.66;5067599;28;20023;-67
2022/01/11 07:38:14;;;;;;;5.65;2.55;;;;;;;-4.24;100.00;101012.81;5072912;28;20042;-67
2022/01/11 07:41:01;;;;;;;6.07;3.03;;;;;;;-4.35;100.00;101011.31;5077314;28;20058;-65
2022/01/11 07:44:02;;;;;;;5.07;2.67;;;;;;;-4.36;100.00;101017.28;5082652;28;20062;-64
2022/01/11 07:46:53;;;;;;;7.68;2.67;;;;;;;-4.20;100.00;101011.31;5079158;28;20055;-66
2022/01/11 07:49:52;;;;;;;5.72;3.00;;;;;;;-4.20;100.00;101012.19;5095124;28;20051;-67
2022/01/11 07:52:37;;;;;;;6.82;2.90;;;;;;;-4.22;100.00;101013.81;5067388;28;20090;-68
2022/01/11 07:55:23;;;;;;;6.38;2.85;;;;;;;-4.20;100.00;101019.09;5073791;28;20131;-66
2022/01/11 07:58:08;;;;;;;6.13;3.08;;;;;;;-4.31;100.00;101010.69;5083672;28;20055;-68
2022/01/11 08:00:53;;;;;;;5.97;2.75;;;;;;;-4.43;100.00;100999.63;5071230;28;20051;-66
2022/01/11 08:03:48;;;;;;;4.80;2.97;;;;;;;-4.49;100.00;101019.97;5082329;28;20054;-68
2022/01/11 08:06:39;;;;;;;4.90;2.60;;;;;;;-4.21;100.00;101019.88;5072898;28;20109;-67
2022/01/11 08:09:34;;;;;;;5.60;3.03;;;;;;;-3.96;100.00;101021.34;5089298;28;20128;-67
2022/01/11 08:12:19;;;;;;;;;;;;;;;-3.71;100.00;101032.31;5082064;28;20077;-67
2022/01/11 08:15:05;;;;;;;5.25;2.35;;;;;;;-3.49;100.00;101030.09;5062198;28;20465;-68
2022/01/11 08:17:50;;;;;;;4.65;2.25;;;;;;;-3.44;100.00;101032.94;5078394;28;20043;-71
2022/01/11 08:20:38;;;;;;;6.32;2.50;;;;;;;-3.53;100.00;101032.47;5070794;28;20059;-69
2022/01/11 08:23:25;;;;;;;5.63;2.50;;;;;;;-3.38;100.00;101022.91;5102209;28;20104;-71
2022/01/11 08:26:13;;;;;;;5.05;2.42;;;;;;;-3.04;100.00;101034.31;5071465;28;20128;-68
2022/01/11 08:28:59;;;;;;;5.65;2.15;;;;;;;-1.77;100.00;101029.66;5065285;28;20064;-76
2022/01/11 08:31:46;;;;;;;5.63;2.13;;;;;;;-0.52;100.00;101032.13;5079662;28;20507;-68
2022/01/11 08:34:30;;;;;;;4.35;1.98;;;;;;;0.41;100.00;101034.31;5095050;28;20104;-66
2022/01/11 08:37:16;;;;;;;5.53;2.33;;;;;;;0.94;100.00;101038.19;5067098;28;20090;-64
2022/01/11 08:40:05;;;;;;;4.00;2.25;;;;;;;1.59;96.04;101032.78;5063706;28;20177;-73
2022/01/11 08:42:51;;;;;;;5.50;2.42;;;;;;;2.21;88.55;101043.72;5064336;28;20834;-63
2022/01/11 08:45:37;;;;;;;5.05;2.35;;;;;;;2.75;85.38;101032.38;5086846;28;20089;-66
2022/01/11 08:48:26;;;;;;;6.00;2.70;;;;;;;3.12;80.15;101036.16;5055499;28;20090;-63
2022/01/11 08:51:26;;;;;;;4.32;2.50;;;;;;;3.83;78.02;101035.56;5057850;28;20480;-66
2022/01/11 08:54:12;;;;;;;4.72;2.45;;;;;;;4.00;70.13;101034.31;5091121;28;20055;-65
2022/01/11 08:57:00;;;;;;;4.60;2.28;;;;;;;3.65;68.39;101037.69;5099702;27;20046;-65
2022/01/11 08:59:46;;;;;;;5.00;2.45;;;;;;;2.94;72.34;101025.16;5092297;28;20093;-66
2022/01/11 09:02:35;;;;;;;4.13;2.30;;;;;;;2.31;74.39;101038.81;5090488;28;20097;-65
2022/01/11 09:05:22;;;;;;;4.45;2.58;;;;;;;1.99;75.96;101039.47;5093328;28;20050;-65
2022/01/11 09:08:10;;;;;;;4.68;3.08;;;;;;;1.76;74.92;101042.13;5087074;28;20079;-64
2022/01/11 09:10:55;;;;;;;4.07;2.10;;;;;;;1.13;79.15;101042.38;5072795;28;20086;-66
2022/01/11 09:13:41;;;;;;;4.75;2.08;;;;;;;0.71;80.83;101043.38;5104317;27;20414;-63
2022/01/11 09:16:28;;;;;;;4.97;2.60;;;;;;;0.61;84.73;101047.34;5100504;27;20126;-66
2022/01/11 09:19:15;;;;;;;4.05;2.22;;;;;;;0.61;85.00;101049.03;5100942;27;20054;-73
2022/01/11 09:22:01;;;;;;;6.57;2.50;;;;;;;0.65;82.82;101045.72;5095519;27;20073;-67
2022/01/11 09:24:47;;;;;;;5.47;2.60;;;;;;;0.69;82.75;101050.22;5112461;27;20054;-68
2022/01/11 09:27:34;;;;;;;5.15;2.53;;;;;;;0.35;83.10;101039.31;5114816;27;20050;-66
2022/01/11 09:30:21;;;;;;;5.60;2.80;;;;;;;0.36;84.61;101051.50;5091753;28;20420;-68
2022/01/11 09:33:09;;;;;;;4.80;2.50;;;;;;;-0.12;86.22;101050.34;5072229;27;20050;-67
2022/01/11 09:35:56;;;;;;;4.82;2.88;;;;;;;-0.73;90.38;101038.09;5128460;27;20081;-66
2022/01/11 09:38:43;;;;;;;5.88;2.95;;;;;;;-0.56;91.79;101048.44;5067051;28;20051;-74
2022/01/11 09:41:28;;;;;;;4.25;2.47;;;;;;;-1.40;94.20;101041.91;5063917;27;20077;-69
2022/01/11 09:44:13;;;;;;;6.50;2.60;;;;;;;-1.56;96.42;101052.41;5102184;27;20065;-67
2022/01/11 09:46:59;;;;;;;5.00;2.55;;;;;;;-1.29;96.81;101051.13;5099224;27;20066;-68
2022/01/11 09:49:44;;;;;;;3.33;2.17;;;;;;;-1.42;97.17;101053.94;5089312;28;20043;-68
2022/01/11 09:52:29;;;;;;;4.82;2.55;;;;;;;-1.56;98.00;101051.50;5088763;28;20046;-67
2022/01/11 09:55:17;;;;;;;5.05;2.65;;;;;;;-1.58;99.52;101055.75;5073431;28;20046;-67
2022/01/11 09:58:04;;;;;;;4.63;2.40;;;;;;;-2.02;100.00;101058.75;5100306;27;20160;-66
2022/01/11 10:01:08;;;;;;;4.22;2.10;;;;;;;-2.47;100.00;101068.50;5090870;28;20046;-65
2022/01/11 10:04:14;;;;;;;4.18;2.35;;;;;;;-2.48;100.00;101064.13;5080684;28;20092;-65
2022/01/11 10:07:34;;;;;;;5.85;2.45;;;;;;;-2.23;100.00;101069.75;5000605;28;20496;-68
2022/01/11 10:10:26;;;;;;;6.28;2.47;;;;;;;-2.35;100.00;101077.81;5026467;28;20056;-67
2022/01/11 10:13:41;;;;;;;5.55;2.55;;;;;;;-2.61;100.00;101079.88;5029264;28;20190;-66
2022/01/11 10:16:33;;;;;;;3.92;1.98;;;;;;;-2.91;100.00;101083.44;5032980;28;20493;-71
2022/01/11 10:19:24;;;;;;;4.35;2.60;;;;;;;-2.79;100.00;101084.09;5012786;28;20442;-68
2022/01/11 10:22:18;;;;;;;5.47;2.65;;;;;;;-2.62;100.00;101081.56;5026040;28;20111;-69
2022/01/11 10:25:05;;;;;;;6.03;2.58;;;;;;;-2.53;100.00;101082.06;5011865;28;20948;-68
2022/01/11 10:28:05;;;;;;;7.88;2.45;;;;;;;-2.59;100.00;101084.34;5012937;28;20675;-66
2022/01/11 10:30:55;;;;;;;3.42;2.13;;;;;;;-2.83;100.00;101084.72;5019405;28;20048;-66
2022/01/11 10:34:00;;;;;;;4.80;2.28;;;;;;;-2.80;100.00;101066.75;5023433;28;20662;-66
2022/01/11 10:36:52;;;;;;;4.95;2.63;;;;;;;-3.06;100.00;101080.91;5007484;28;20092;-67
2022/01/11 10:39:41;;;;;;;4.72;2.58;;;;;;;-3.43;100.00;101076.19;5002807;28;20083;-64
2022/01/11 10:42:33;;;;;;;8.98;2.88;;;;;;;-3.37;100.00;101092.13;5026254;28;20115;-65
2022/01/11 10:45:25;;;;;;;7.65;2.80;;;;;;;-3.49;100.00;101084.53;5079384;28;20105;-65
2022/01/11 10:48:14;;;;;;;6.15;2.33;;;;;;;-3.60;100.00;101095.97;5088091;28;20478;-66
2022/01/11 10:51:02;;;;;;;5.50;3.00;;;;;;;-3.60;100.00;101092.53;5071076;28;20164;-66
2022/01/11 10:53:51;;;;;;;6.32;2.88;;;;;;;-3.58;100.00;101096.97;5089060;28;20046;-65
2022/01/11 10:56:43;;;;;;;9.60;2.60;;;;;;;-3.50;100.00;101081.84;5094686;27;20522;-65
2022/01/11 10:59:28;;;;;;;6.25;3.10;;;;;;;-3.86;100.00;101092.72;5090269;28;20530;-65
2022/01/11 11:02:25;;;;;;;4.97;2.60;;;;;;;-3.89;100.00;101080.47;5078030;28;20053;-66
2022/01/11 11:05:15;;;;;;;4.10;2.53;;;;;;;-3.96;100.00;101096.47;5080210;28;20135;-67
2022/01/11 11:08:09;;;;;;;6.60;3.10;;;;;;;-4.07;100.00;101096.66;5086603;27;20054;-65
2022/01/11 11:10:57;;;;;;;6.53;2.67;;;;;;;-4.05;100.00;101098.53;5068286;28;20103;-65
2022/01/11 11:13:46;;;;;;;4.78;2.50;;;;;;;-4.49;100.00;101100.19;5059834;28;20062;-67
2022/01/11 11:16:38;;;;;;;4.82;2.78;;;;;;;-4.57;100.00;101098.84;5069931;28;20047;-66
2022/01/11 11:19:25;;;;;;;5.63;2.65;;;;;;;-4.42;100.00;101102.34;5069601;28;20518;-63
2022/01/11 11:22:19;;;;;;;5.50;2.92;;;;;;;-4.47;100.00;101105.47;5064853;28;20388;-63
2022/01/11 11:25:05;;;;;;;6.78;3.13;;;;;;;-4.77;100.00;101112.25;5081395;28;20090;-65
2022/01/11 11:27:50;;;;;;;4.93;2.40;;;;;;;-4.58;100.00;101114.25;5100011;27;20061;-66
2022/01/11 11:30:36;;;;;;;5.65;2.40;;;;;;;-4.54;100.00;101116.25;5097667;28;20237;-64
2022/01/11 11:33:21;;;;;;;6.55;2.78;;;;;;;-4.56;100.00;101115.25;5083083;28;20047;-65
2022/01/11 11:36:10;;;;;;;6.35;2.60;;;;;;;-4.48;100.00;101109.72;5097286;28;20583;-64
2022/01/11 11:38:59;;;;;;;8.02;3.47;;;;;;;-4.48;100.00;101120.09;5082499;28;20063;-64
2022/01/11 11:41:51;;;;;;;6.72;2.45;;;;;;;-4.52;100.00;101128.47;5071187;27;20054;-65
2022/01/11 11:44:38;;;;;;;8.48;2.75;;;;;;;-4.41;100.00;101139.47;5060761;28;20108;-66
2022/01/11 11:47:34;;;;;;;5.45;2.90;;;;;;;-4.43;100.00;101130.72;5067324;28;20526;-65
2022/01/11 11:50:22;;;;;;;6.47;2.78;;;;;;;-4.79;100.00;101136.25;5079506;28;20530;-66
2022/01/11 11:53:30;;;;;;;11.00;2.65;;;;;;;-4.69;100.00;101128.22;5058247;28;20078;-66
2022/01/11 11:56:17;;;;;;;6.25;2.88;;;;;;;-5.01;100.00;101128.84;5051424;28;20116;-66
2022/01/11 11:59:09;;;;;;;4.90;2.80;;;;;;;-5.04;100.00;101134.72;5088280;28;20074;-67
2022/01/11 12:01:58;;;;;;;6.60;2.72;;;;;;;-5.15;100.00;101143.47;5073182;28;20043;-66
2022/01/11 12:04:52;;;;;;;8.60;3.22;;;;;;;-5.07;100.00;101138.78;5078604;28;20175;-66
2022/01/11 12:07:44;;;;;;;7.07;3.38;;;;;;;-5.26;100.00;101146.19;5081323;28;20042;-65
2022/01/11 12:10:52;;;;;;;10.30;3.75;;;;;;;-5.02;100.00;101151.19;5050899;28;20053;-66
2022/01/11 12:13:38;;;;;;;9.73;3.15;;;;;;;-5.09;100.00;101158.50;5102969;28;20146;-66
2022/01/11 12:16:23;;;;;;;7.35;3.13;;;;;;;-5.32;100.00;101162.19;5075040;28;20535;-67
2022/01/11 12:19:11;;;;;;;7.25;3.10;;;;;;;-5.49;100.00;101167.94;5055594;28;20093;-67
2022/01/11 12:22:08;;;;;;;4.85;2.70;;;;;;;-5.62;100.00;101161.91;5073592;28;20093;-68
2022/01/11 12:24:56;;;;;;;6.35;2.90;;;;;;;-5.67;100.00;101165.84;5099421;28;20096;-68
2022/01/11 12:28:01;;;;;;;5.30;2.60;;;;;;;-5.37;100.00;101160.09;5098701;28;20092;-74
2022/01/11 12:30:47;;;;;;;7.60;3.20;;;;;;;-5.42;100.00;101170.13;5075198;28;20173;-70
2022/01/11 12:33:47;;;;;;;6.85;3.05;;;;;;;-5.16;100.00;101169.22;5084626;28;20054;-71
2022/01/11 12:36:50;;;;;;;6.03;2.83;;;;;;;-5.19;100.00;101169.94;5087344;28;20526;-72
2022/01/11 12:40:01;;;;;;;7.15;2.70;;;;;;;-5.33;100.00;101164.69;5080899;28;20124;-66
2022/01/11 12:42:52;;;;;;;6.55;2.83;;;;;;;-5.18;100.00;101179.47;5080367;27;20058;-66
2022/01/11 12:46:11;;;;;;;4.80;2.67;;;;;;;-5.12;100.00;101169.53;5068517;28;20065;-68
2022/01/11 12:49:00;;;;;;;6.25;2.70;;;;;;;-5.35;100.00;101190.41;5071144;28;20132;-68
2022/01/11 12:51:51;;;;;;;7.68;2.50;;;;;;;-5.53;100.00;101186.63;5077789;28;20712;-67
2022/01/11 12:54:43;;;;;;;6.50;2.50;;;;;;;-5.54;100.00;101191.72;5069116;28;20131;-69
2022/01/11 12:57:30;;;;;;;7.07;2.92;;;;;;;-5.45;100.00;101203.53;5076092;27;20078;-68